Praia da Pipa, Brazil
Current Conditions -  °F | °C
As of 6:00 PM on Saturday 20 Dec 2014 (Local Time) from SBNT Reporting Station
Few Clouds Few Clouds  
Wind Chill: 81°   Ceiling: Unl
Heat Index: 84°   Visibility: 6mi
Dew Point: 70°   Wind: 9mph
Humidity: 70%   Direction: 110°ESE
Pressure: 29.91"   Gusts: NA
Location:  6.19°S, 35.09°W
Report Text: SBNT 202100Z 11008KT 9999 FEW020 27/21 Q1013
Loading
Personal Weather Stations






























Interactive Weather Map New forecast layout! Learn more

10-Day Weather Forecast

Advertisements
Track Severe Weather on mobile